»·PEaware :: N256Z KLAS-KIWA

N256Z :: KLAS-KIWA

FLIGHT INFORMATION

Flight Status: Arrived
Operator: Privately registered:
United States
More flights under this callsign
Pilot: Gregory A. (9731)
Aircraft: PIPER PA-46-500TP MALIBU MERIDIAN
(P46T)
More flights by this aircraft type
Origin: KLAS McCarran Intl
United States
Destination: KIWA Williams Gateway
United States
More flights between these airports :: More routes between these airports
Route: +BLD BLD125030 IGM DRK DSERT DSERT2
File this flight plan on PilotEdge
Remarks:
Altitude:
(Current/Filed)
270ft
Speed:
(Current/Filed)
260kts
Departed: 20-Apr-19 02:46 PM
Arrived: 20-Apr-19 04:19 PM
Distance/Time
Traveled:
239nm/1:33
Distance/Time
To Go:
Arrived

Flight Plot

Page will automatically refresh every two minutes.

Flight plan parsing failed; only flown route is shown


Map Options




Map Legend


Flown Route
Filed Route
Departure Airport
Arrival Airport
Navaid (VOR, NDB)
Fix

Horizontal Profiles

Position Reports

Time Latitude Longitude Heading Altitude Ground
Speed
20-Apr-19 14:01 37.626725 -118.842747 19 7132ft 0kts
20-Apr-19 14:02 37.626725 -118.842747 19 7132ft 0kts
20-Apr-19 14:03 37.626725 -118.842747 19 7132ft 0kts
20-Apr-19 14:10 37.626725 -118.842747 19 7132ft 0kts
20-Apr-19 14:11 37.626725 -118.842747 19 7132ft 0kts
20-Apr-19 14:12 37.626725 -118.842747 19 7132ft 0kts
20-Apr-19 14:13 37.626727 -118.842747 19 7132ft 0kts
20-Apr-19 14:14 37.626727 -118.842747 19 7132ft 0kts
20-Apr-19 14:15 36.080001 -115.152000 19 2119ft 0kts
20-Apr-19 14:16 36.098164 -115.163044 89 2119ft 0kts
20-Apr-19 14:17 36.098164 -115.163040 89 2119ft 0kts
20-Apr-19 14:18 36.098164 -115.163036 89 2119ft 0kts
20-Apr-19 14:19 36.098164 -115.163033 89 2119ft 0kts
20-Apr-19 14:20 36.098164 -115.163029 89 2119ft 0kts
20-Apr-19 14:21 36.098164 -115.163026 89 2119ft 0kts
20-Apr-19 14:22 36.098164 -115.163022 89 2119ft 0kts
20-Apr-19 14:23 36.098164 -115.163018 89 2119ft 0kts
20-Apr-19 14:24 36.098164 -115.163014 89 2119ft 0kts
20-Apr-19 14:25 36.098164 -115.163011 89 2119ft 0kts
20-Apr-19 14:26 36.098164 -115.163007 89 2119ft 0kts
20-Apr-19 14:27 36.098164 -115.163003 89 2119ft 0kts
20-Apr-19 14:28 36.098164 -115.162999 89 2119ft 0kts
20-Apr-19 14:29 36.098164 -115.162996 89 2119ft 0kts
20-Apr-19 14:30 36.098164 -115.162992 89 2119ft 0kts
20-Apr-19 14:31 36.098164 -115.162988 89 2119ft 0kts
20-Apr-19 14:32 36.098164 -115.162985 89 2119ft 0kts
20-Apr-19 14:33 36.098164 -115.162981 89 2119ft 0kts
20-Apr-19 14:34 36.098164 -115.162977 89 2119ft 0kts
20-Apr-19 14:35 36.098164 -115.162973 89 2119ft 0kts
20-Apr-19 14:36 36.098164 -115.162970 89 2119ft 0kts
20-Apr-19 14:37 36.098166 -115.162842 88 2119ft 5kts
20-Apr-19 14:38 36.099260 -115.159455 21 2119ft 19kts
20-Apr-19 14:39 36.099739 -115.157112 114 2119ft 0kts
20-Apr-19 14:40 36.099738 -115.157107 113 2119ft 0kts
20-Apr-19 14:41 36.099736 -115.157102 113 2119ft 0kts
20-Apr-19 14:42 36.099734 -115.157098 113 2119ft 0kts
20-Apr-19 14:43 36.099733 -115.157093 113 2119ft 0kts
20-Apr-19 14:44 36.099725 -115.157072 113 2119ft 1kts
20-Apr-19 14:45 36.096025 -115.158310 207 2119ft 65kts
20-Apr-19 14:46 36.061205 -115.171112 187 3194ft 168kts
20-Apr-19 14:47 36.012010 -115.180458 187 4823ft 173kts
20-Apr-19 14:48 35.961703 -115.189176 187 5722ft 180kts
20-Apr-19 14:49 35.910943 -115.197598 187 5723ft 185kts
20-Apr-19 14:50 35.865989 -115.205036 187 7030ft 147kts
20-Apr-19 14:51 35.821803 -115.212181 187 9091ft 178kts
20-Apr-19 14:52 35.768540 -115.219962 187 10691ft 212kts
20-Apr-19 14:53 35.717356 -115.212306 120 10709ft 193kts
20-Apr-19 14:54 35.717733 -115.146890 83 10722ft 196kts
20-Apr-19 14:55 35.723093 -115.076989 83 10702ft 207kts
20-Apr-19 14:56 35.728260 -115.008753 83 10713ft 197kts
20-Apr-19 14:57 35.733353 -114.940944 83 10697ft 196kts
20-Apr-19 14:58 35.738246 -114.874131 83 10709ft 199kts
20-Apr-19 14:59 35.743288 -114.803915 83 10687ft 208kts
20-Apr-19 15:00 35.748281 -114.733920 83 10971ft 194kts
20-Apr-19 15:01 35.752576 -114.668816 82 12973ft 200kts
20-Apr-19 15:02 35.743733 -114.598568 118 15002ft 220kts
20-Apr-19 15:03 35.702141 -114.539174 142 15681ft 231kts
20-Apr-19 15:04 35.651427 -114.494318 146 15675ft 217kts
20-Apr-19 15:05 35.604252 -114.449984 144 15880ft 207kts
20-Apr-19 15:06 35.567502 -114.396605 127 17034ft 213kts
20-Apr-19 15:07 35.528816 -114.337040 131 18649ft 230kts
20-Apr-19 15:08 35.486593 -114.276885 132 20253ft 232kts
20-Apr-19 15:09 35.446630 -114.216551 129 22418ft 226kts
20-Apr-19 15:10 35.407963 -114.156445 131 24797ft 221kts
20-Apr-19 15:11 35.369782 -114.098809 132 27164ft 212kts
20-Apr-19 15:12 35.326004 -114.033416 131 27535ft 281kts
20-Apr-19 15:13 35.277544 -113.952163 116 27434ft 305kts
20-Apr-19 15:14 35.242858 -113.856063 112 27433ft 309kts
20-Apr-19 15:15 35.209138 -113.759186 112 27431ft 310kts
20-Apr-19 15:16 35.175418 -113.662314 112 27260ft 312kts
20-Apr-19 15:17 35.142040 -113.566750 112 26600ft 294kts
20-Apr-19 15:18 35.111297 -113.476476 108 25931ft 285kts
20-Apr-19 15:19 35.083630 -113.385802 110 25269ft 285kts
20-Apr-19 15:20 35.050293 -113.298071 117 24613ft 285kts
20-Apr-19 15:21 35.017569 -113.212470 112 24428ft 270kts
20-Apr-19 15:22 34.986309 -113.130477 114 24427ft 265kts
20-Apr-19 15:23 34.953751 -113.046432 114 23604ft 283kts
20-Apr-19 15:24 34.921095 -112.962396 114 22601ft 263kts
20-Apr-19 15:25 34.890300 -112.883241 114 21596ft 254kts
20-Apr-19 15:26 34.860204 -112.805813 114 20598ft 252kts
20-Apr-19 15:27 34.829890 -112.728328 114 19603ft 256kts
20-Apr-19 15:28 34.794945 -112.652307 121 18604ft 256kts
20-Apr-19 15:29 34.757294 -112.581976 123 17602ft 240kts
20-Apr-19 15:30 34.721474 -112.516607 122 16600ft 226kts
20-Apr-19 15:31 34.692592 -112.450039 111 15605ft 221kts
20-Apr-19 15:32 34.666229 -112.383281 135 14609ft 219kts
20-Apr-19 15:33 34.620210 -112.335805 138 13629ft 217kts
20-Apr-19 15:34 34.575033 -112.286950 138 12633ft 216kts
20-Apr-19 15:35 34.529730 -112.238364 138 11634ft 215kts
20-Apr-19 15:36 34.486862 -112.193027 138 11365ft 193kts
20-Apr-19 15:37 34.446925 -112.150912 138 11363ft 190kts
20-Apr-19 15:38 34.407100 -112.108833 138 11360ft 190kts
20-Apr-19 15:39 34.365658 -112.064908 138 11362ft 215kts
20-Apr-19 15:40 34.320416 -112.017020 138 11346ft 198kts
20-Apr-19 15:41 34.279023 -111.973348 138 11357ft 199kts
20-Apr-19 15:42 34.236913 -111.928938 138 11333ft 199kts
20-Apr-19 15:43 34.195418 -111.885027 137 11325ft 198kts
20-Apr-19 15:44 34.153457 -111.840004 137 11326ft 205kts
20-Apr-19 15:45 34.110427 -111.794086 147 11328ft 207kts
20-Apr-19 15:46 34.054330 -111.777230 170 11321ft 207kts
20-Apr-19 15:47 33.996730 -111.768085 175 10963ft 217kts
20-Apr-19 15:48 33.941357 -111.760449 171 9956ft 189kts
20-Apr-19 15:49 33.888678 -111.751719 170 8956ft 190kts
20-Apr-19 15:50 33.842974 -111.744008 170 8083ft 189kts
20-Apr-19 15:51 33.791005 -111.735228 170 7086ft 187kts
20-Apr-19 15:52 33.739632 -111.726529 170 6324ft 180kts
20-Apr-19 15:53 33.693057 -111.718626 170 5461ft 185kts
20-Apr-19 15:54 33.645946 -111.710607 169 5284ft 164kts
20-Apr-19 15:55 33.603036 -111.703016 169 5295ft 151kts
20-Apr-19 15:56 33.560989 -111.695833 169 5294ft 151kts
20-Apr-19 15:57 33.515901 -111.688411 170 4724ft 167kts
20-Apr-19 15:58 33.472887 -111.681069 169 4676ft 148kts
20-Apr-19 15:59 33.432908 -111.674190 168 4697ft 144kts
20-Apr-19 16:00 33.391677 -111.667231 169 4680ft 148kts
20-Apr-19 16:01 33.350721 -111.660212 169 4719ft 168kts
20-Apr-19 16:02 33.300210 -111.646240 143 4712ft 187kts
20-Apr-19 16:03 33.263016 -111.604532 130 4697ft 179kts
20-Apr-19 16:05 33.228050 -111.562584 132 4709ft 178kts
20-Apr-19 16:06 33.194540 -111.522235 131 4706ft 161kts
20-Apr-19 16:07 33.163778 -111.484695 130 4693ft 152kts
20-Apr-19 16:08 33.128795 -111.470198 184 4377ft 147kts
20-Apr-19 16:09 33.089404 -111.464056 131 4001ft 132kts
20-Apr-19 16:10 33.088357 -111.424943 51 3997ft 128kts
20-Apr-19 16:11 33.118687 -111.422169 298 3775ft 150kts
20-Apr-19 16:12 33.141427 -111.461620 315 3588ft 134kts
20-Apr-19 16:13 33.166629 -111.491341 320 3599ft 123kts
20-Apr-19 16:14 33.193587 -111.520826 319 3595ft 137kts
20-Apr-19 16:15 33.220844 -111.552878 318 3565ft 140kts
20-Apr-19 16:16 33.251393 -111.588589 317 2723ft 152kts
20-Apr-19 16:17 33.275326 -111.616388 316 2016ft 106kts
20-Apr-19 16:18 33.295840 -111.640378 313 1487ft 101kts
20-Apr-19 16:19 33.308597 -111.655475 316 1386ft 30kts
20-Apr-19 16:20 33.306717 -111.660807 225 1386ft 26kts
20-Apr-19 16:21 33.302324 -111.665905 223 1386ft 5kts
20-Apr-19 16:22 33.301993 -111.665812 49 1386ft 0kts
20-Apr-19 16:23 33.301993 -111.665812 49 1386ft 0kts
20-Apr-19 16:24 33.301993 -111.665812 49 1386ft 0kts

Navigation Log

Ident Type
Flight plan parsing failed, navigation log unavailable